createdAt,value
2018-01-30T00:01:17.787Z,0.70
2018-01-30T00:03:44.258Z,0.90
2018-01-30T00:06:10.794Z,1.10
2018-01-30T00:08:37.352Z,1.20
2018-01-30T00:11:04.626Z,1.10
2018-01-30T00:13:31.886Z,1.40
2018-01-30T00:15:59.176Z,1.40
2018-01-30T00:18:26.423Z,1.58
2018-01-30T00:20:52.910Z,1.80
2018-01-30T00:23:19.408Z,1.60
2018-01-30T00:25:45.901Z,1.77
2018-01-30T00:28:13.120Z,2.05
2018-01-30T00:30:39.654Z,1.80
2018-01-30T00:33:06.210Z,1.80
2018-01-30T00:35:33.486Z,1.90
2018-01-30T00:38:00.043Z,2.08
2018-01-30T00:40:27.317Z,1.90
2018-01-30T00:42:54.531Z,1.90
2018-01-30T00:45:21.048Z,1.90
2018-01-30T00:47:48.322Z,2.00
2018-01-30T00:50:15.571Z,1.70
2018-01-30T00:52:42.054Z,1.73
2018-01-30T00:55:08.520Z,1.77
2018-01-30T00:57:35.032Z,1.80
2018-01-30T01:00:03.165Z,1.92
2018-01-30T01:02:29.725Z,1.90
2018-01-30T01:04:56.277Z,1.80
2018-01-30T01:07:23.551Z,1.80
2018-01-30T01:09:50.787Z,2.08
2018-01-30T01:12:17.287Z,1.83
2018-01-30T01:14:44.557Z,2.00
2018-01-30T01:17:11.748Z,2.30
2018-01-30T01:19:38.212Z,2.70
2018-01-30T01:22:04.677Z,2.50
2018-01-30T01:24:31.201Z,2.63
2018-01-30T01:26:58.505Z,2.30
2018-01-30T01:29:24.969Z,2.10
2018-01-30T01:31:51.489Z,1.40
2018-01-30T01:34:18.764Z,1.00
2018-01-30T01:36:46.038Z,1.00
2018-01-30T01:39:13.210Z,0.70
2018-01-30T01:41:40.486Z,0.67
2018-01-30T01:44:07.758Z,0.65
2018-01-30T01:46:35.035Z,0.50
2018-01-30T01:49:01.593Z,0.60
2018-01-30T01:51:28.813Z,0.60
2018-01-30T01:53:55.261Z,0.60
2018-01-30T01:56:21.966Z,0.60
2018-01-30T01:58:49.166Z,0.60
2018-01-30T02:01:15.713Z,0.70
2018-01-30T02:03:42.988Z,0.70
2018-01-30T02:06:10.269Z,0.70
2018-01-30T02:08:36.822Z,0.70
2018-01-30T02:11:04.155Z,0.82
2018-01-30T02:13:30.656Z,0.90
2018-01-30T02:15:58.568Z,0.60
2018-01-30T02:18:25.076Z,0.70
2018-01-30T02:20:51.660Z,0.70
2018-01-30T02:23:18.936Z,0.90
2018-01-30T02:25:46.208Z,1.10
2018-01-30T02:28:14.302Z,1.20
2018-01-30T02:30:41.581Z,1.30
2018-01-30T02:33:08.079Z,1.40
2018-01-30T02:35:34.556Z,1.30
2018-01-30T02:38:01.048Z,1.10
2018-01-30T02:40:28.255Z,1.10
2018-01-30T02:42:54.688Z,1.30
2018-01-30T02:45:21.140Z,1.52
2018-01-30T02:47:49.635Z,1.60
2018-01-30T02:50:16.915Z,1.70
2018-01-30T02:52:43.369Z,2.00
2018-01-30T02:55:09.927Z,1.83
2018-01-30T02:57:36.482Z,1.90
2018-01-30T03:00:03.794Z,2.05
2018-01-30T03:02:30.271Z,2.10
2018-01-30T03:04:57.742Z,2.05
2018-01-30T03:07:24.176Z,1.85
2018-01-30T03:09:50.714Z,1.60
2018-01-30T03:12:17.749Z,1.40
2018-01-30T03:14:44.334Z,1.40
2018-01-30T03:17:11.537Z,1.40
2018-01-30T03:19:38.065Z,1.42
2018-01-30T03:22:05.265Z,1.30
2018-01-30T03:24:31.797Z,1.55
2018-01-30T03:26:58.996Z,1.60
2018-01-30T03:29:25.526Z,1.60
2018-01-30T03:31:52.087Z,1.30
2018-01-30T03:34:19.364Z,1.30
2018-01-30T03:36:46.535Z,1.37
2018-01-30T03:39:13.627Z,1.40
2018-01-30T03:41:40.081Z,1.20
2018-01-30T03:44:06.566Z,1.30
2018-01-30T03:46:33.053Z,1.10
2018-01-30T03:49:00.254Z,1.10
2018-01-30T03:51:26.808Z,1.30
2018-01-30T03:53:53.362Z,1.10
2018-01-30T03:56:20.562Z,1.50
2018-01-30T03:58:47.095Z,1.50
2018-01-30T04:01:14.367Z,1.50
2018-01-30T04:03:41.641Z,1.50
2018-01-30T04:06:08.864Z,1.40
2018-01-30T04:08:35.352Z,1.40
2018-01-30T04:11:03.364Z,1.50
2018-01-30T04:13:30.638Z,1.73
2018-01-30T04:15:57.913Z,1.70
2018-01-30T04:18:25.665Z,1.80
2018-01-30T04:20:52.257Z,1.60
2018-01-30T04:23:19.531Z,1.83
2018-01-30T04:25:46.770Z,2.20
2018-01-30T04:28:13.261Z,2.30
2018-01-30T04:30:40.529Z,2.30
2018-01-30T04:33:07.724Z,1.90
2018-01-30T04:35:34.216Z,1.90
2018-01-30T04:38:00.928Z,2.37
2018-01-30T04:40:28.203Z,1.90
2018-01-30T04:42:55.582Z,2.00
2018-01-30T04:45:22.069Z,1.60
2018-01-30T04:47:48.543Z,1.60
2018-01-30T04:50:15.004Z,1.55
2018-01-30T04:52:41.510Z,1.60
2018-01-30T04:55:08.728Z,1.70
2018-01-30T04:57:35.189Z,2.00
2018-01-30T05:00:01.798Z,1.70
2018-01-30T05:02:29.608Z,2.10
2018-01-30T05:04:56.141Z,1.85
2018-01-30T05:07:23.415Z,1.90
2018-01-30T05:09:49.973Z,1.75
2018-01-30T05:12:16.531Z,1.70
2018-01-30T05:14:43.090Z,1.45
2018-01-30T05:17:10.364Z,1.60
2018-01-30T05:19:37.602Z,1.80
2018-01-30T05:22:04.201Z,1.90
2018-01-30T05:24:30.655Z,1.40
2018-01-30T05:26:57.927Z,3.30
2018-01-30T05:29:25.139Z,1.75
2018-01-30T05:31:52.571Z,1.35
2018-01-30T05:34:19.789Z,1.60
2018-01-30T05:36:46.271Z,1.50
2018-01-30T05:39:13.364Z,1.58
2018-01-30T05:41:40.654Z,1.30
2018-01-30T05:44:08.031Z,1.50
2018-01-30T05:46:34.537Z,1.40
2018-01-30T05:49:01.148Z,1.50
2018-01-30T05:51:27.707Z,1.30
2018-01-30T05:53:54.265Z,1.62
2018-01-30T05:56:21.743Z,2.00
2018-01-30T05:58:48.962Z,1.40
2018-01-30T06:01:15.474Z,1.70
2018-01-30T06:03:41.957Z,1.80
2018-01-30T06:06:08.539Z,1.40
2018-01-30T06:08:35.150Z,1.48
2018-01-30T06:11:02.835Z,1.75
2018-01-30T06:13:29.393Z,1.53
2018-01-30T06:15:55.852Z,1.52
2018-01-30T06:18:22.372Z,2.20
2018-01-30T06:20:48.864Z,1.90
2018-01-30T06:23:15.328Z,1.50
2018-01-30T06:25:41.764Z,1.70
2018-01-30T06:28:09.032Z,1.57
2018-01-30T06:30:36.324Z,1.80
2018-01-30T06:33:03.601Z,1.50
2018-01-30T06:35:30.797Z,1.40
2018-01-30T06:37:57.262Z,1.50
2018-01-30T06:40:23.724Z,1.57
2018-01-30T06:42:50.226Z,1.70
2018-01-30T06:45:17.431Z,1.80
2018-01-30T06:47:43.914Z,1.70
2018-01-30T06:50:10.431Z,1.80
2018-01-30T06:52:37.704Z,1.40
2018-01-30T06:55:05.620Z,1.50
2018-01-30T06:57:32.087Z,1.77
2018-01-30T06:59:58.552Z,1.60
2018-01-30T07:02:25.064Z,1.80
2018-01-30T07:04:51.526Z,1.70
2018-01-30T07:07:18.009Z,1.80
2018-01-30T07:09:44.536Z,1.30
2018-01-30T07:12:11.809Z,1.65
2018-01-30T07:14:39.084Z,2.00
2018-01-30T07:17:05.551Z,1.60
2018-01-30T07:19:32.059Z,1.70
2018-01-30T07:21:58.492Z,1.60
2018-01-30T07:24:25.012Z,1.40
2018-01-30T07:26:51.507Z,1.55
2018-01-30T07:29:17.976Z,1.75
2018-01-30T07:31:44.484Z,1.70
2018-01-30T07:34:11.858Z,1.90
2018-01-30T07:36:39.132Z,1.73
2018-01-30T07:39:06.411Z,1.80
2018-01-30T07:41:32.967Z,1.85
2018-01-30T07:44:00.218Z,2.00
2018-01-30T07:46:26.800Z,1.92
2018-01-30T07:48:54.016Z,2.00
2018-01-30T07:51:20.556Z,1.53
2018-01-30T07:53:47.096Z,2.10
2018-01-30T07:56:13.589Z,1.80
2018-01-30T07:58:40.107Z,1.92
2018-01-30T08:01:06.661Z,1.80
2018-01-30T08:03:33.937Z,1.80
2018-01-30T08:06:01.211Z,1.35
2018-01-30T08:08:28.491Z,1.55
2018-01-30T08:10:55.044Z,1.75
2018-01-30T08:13:22.236Z,2.10
2018-01-30T08:15:48.724Z,1.80
2018-01-30T08:18:15.337Z,1.50
2018-01-30T08:20:41.891Z,1.70
2018-01-30T08:23:09.097Z,1.80
2018-01-30T08:25:35.729Z,2.03
2018-01-30T08:28:02.189Z,1.80
2018-01-30T08:30:28.650Z,1.80
2018-01-30T08:32:55.122Z,2.08
2018-01-30T08:35:21.758Z,1.80
2018-01-30T08:37:48.257Z,1.80
2018-01-30T08:40:14.769Z,2.10
2018-01-30T08:42:42.008Z,1.80
2018-01-30T08:45:08.635Z,1.95
2018-01-30T08:47:35.803Z,2.08
2018-01-30T08:50:02.436Z,2.10
2018-01-30T08:52:29.712Z,2.10
2018-01-30T08:54:56.268Z,1.83
2018-01-30T08:57:23.440Z,2.05
2018-01-30T08:59:50.714Z,2.10
2018-01-30T09:02:17.989Z,2.10
2018-01-30T09:04:45.263Z,2.00
2018-01-30T09:07:12.537Z,1.90
2018-01-30T09:09:39.097Z,1.90
2018-01-30T09:12:06.315Z,1.80
2018-01-30T09:14:32.915Z,1.60
2018-01-30T09:17:00.125Z,1.70
2018-01-30T09:19:27.088Z,1.77
2018-01-30T09:21:53.629Z,2.00
2018-01-30T09:24:20.903Z,1.92
2018-01-30T09:26:47.463Z,3.28
2018-01-30T09:29:14.121Z,1.92
2018-01-30T09:31:41.361Z,2.00
2018-01-30T09:34:07.898Z,2.10
2018-01-30T09:36:34.388Z,1.92
2018-01-30T09:39:00.970Z,4.40
2018-01-30T09:41:28.346Z,6.95
2018-01-30T09:43:56.237Z,2.80
2018-01-30T09:46:22.792Z,2.20
2018-01-30T09:48:49.310Z,2.07
2018-01-30T09:51:17.341Z,2.20
2018-01-30T09:53:44.722Z,1.98
2018-01-30T09:56:11.278Z,2.12
2018-01-30T09:58:38.552Z,2.22
2018-01-30T10:01:05.828Z,2.10
2018-01-30T10:03:32.402Z,1.67
2018-01-30T10:05:58.945Z,2.00
2018-01-30T10:08:25.440Z,1.80
2018-01-30T10:10:52.062Z,1.87
2018-01-30T10:13:18.724Z,2.10
2018-01-30T10:15:45.995Z,1.90
2018-01-30T10:18:13.270Z,2.53
2018-01-30T10:20:40.471Z,2.08
2018-01-30T10:23:07.008Z,2.58
2018-01-30T10:25:33.560Z,2.67
2018-01-30T10:28:00.835Z,2.10
2018-01-30T10:30:27.354Z,1.73
2018-01-30T10:32:53.951Z,1.80
2018-01-30T10:35:21.839Z,2.37
2018-01-30T10:37:49.687Z,2.15
2018-01-30T10:40:16.183Z,2.28
2018-01-30T10:42:43.460Z,3.00
2018-01-30T10:45:10.581Z,3.00
2018-01-30T10:47:37.190Z,2.60
2018-01-30T10:50:04.469Z,2.30
2018-01-30T10:52:31.125Z,2.20
2018-01-30T10:54:58.403Z,2.22
2018-01-30T10:57:24.885Z,2.15
2018-01-30T10:59:51.413Z,2.10
2018-01-30T11:02:18.607Z,1.85
2018-01-30T11:04:45.144Z,2.10
2018-01-30T11:07:12.621Z,2.10
2018-01-30T11:09:39.808Z,1.70
2018-01-30T11:12:06.898Z,2.30
2018-01-30T11:14:33.422Z,2.70
2018-01-30T11:17:00.629Z,2.10
2018-01-30T11:19:27.069Z,1.83
2018-01-30T11:21:53.669Z,1.90
2018-01-30T11:24:20.167Z,2.20
2018-01-30T11:26:47.444Z,2.97
2018-01-30T11:29:13.903Z,2.87
2018-01-30T11:31:41.174Z,2.60
2018-01-30T11:34:08.358Z,2.42
2018-01-30T11:36:34.909Z,3.70
2018-01-30T11:39:01.375Z,3.58
2018-01-30T11:41:27.919Z,2.20
2018-01-30T11:43:55.399Z,2.20
2018-01-30T11:46:21.959Z,2.80
2018-01-30T11:48:49.232Z,2.30
2018-01-30T11:51:17.325Z,3.17
2018-01-30T11:53:43.883Z,2.58
2018-01-30T11:56:11.082Z,2.40
2018-01-30T11:58:37.559Z,2.60
2018-01-30T12:01:04.173Z,2.90
2018-01-30T12:03:30.730Z,2.80
2018-01-30T12:05:58.007Z,2.40
2018-01-30T12:08:25.199Z,3.15
2018-01-30T12:10:53.780Z,2.70
2018-01-30T12:13:21.874Z,2.35
2018-01-30T12:15:48.432Z,2.10
2018-01-30T12:18:15.936Z,2.47
2018-01-30T12:20:42.470Z,2.30
2018-01-30T12:23:08.929Z,2.78
2018-01-30T12:25:35.587Z,2.58
2018-01-30T12:28:02.833Z,6.12
2018-01-30T12:30:29.297Z,3.03
2018-01-30T12:32:56.995Z,8.60
2018-01-30T12:35:24.278Z,3.25
2018-01-30T12:37:52.150Z,6.10
2018-01-30T12:40:19.540Z,2.20
2018-01-30T12:42:46.809Z,2.10
2018-01-30T12:45:14.089Z,2.50
2018-01-30T12:47:41.363Z,3.00
2018-01-30T12:50:10.263Z,2.83
2018-01-30T12:52:37.857Z,3.47
2018-01-30T12:55:04.450Z,4.43
2018-01-30T12:57:30.972Z,3.90
2018-01-30T12:59:57.634Z,2.70
2018-01-30T13:02:25.014Z,6.70
2018-01-30T13:04:51.568Z,3.20
2018-01-30T13:07:18.843Z,3.72
2018-01-30T13:09:46.083Z,3.28
2018-01-30T13:12:12.579Z,3.80
2018-01-30T13:14:39.236Z,3.30
2018-01-30T13:17:06.512Z,3.40
2018-01-30T13:19:33.170Z,3.22
2018-01-30T13:22:00.384Z,2.90
2018-01-30T13:24:26.882Z,2.20
2018-01-30T13:26:54.174Z,2.95
2018-01-30T13:29:21.759Z,3.80
2018-01-30T13:31:48.764Z,4.85
2018-01-30T13:34:15.246Z,3.28
2018-01-30T13:36:41.737Z,3.85
2018-01-30T13:39:09.118Z,4.12
2018-01-30T13:41:35.668Z,3.10
2018-01-30T13:44:02.944Z,4.20
2018-01-30T13:46:30.429Z,2.90
2018-01-30T13:48:56.990Z,3.20
2018-01-30T13:51:23.545Z,2.20
2018-01-30T13:53:50.820Z,2.20
2018-01-30T13:56:18.093Z,2.20
2018-01-30T13:58:45.314Z,2.40
2018-01-30T14:01:11.759Z,2.40
2018-01-30T14:03:38.292Z,4.90
2018-01-30T14:06:05.718Z,2.60
2018-01-30T14:08:32.192Z,2.80
2018-01-30T14:10:58.778Z,3.00
2018-01-30T14:13:25.990Z,4.30
2018-01-30T14:15:52.519Z,3.80
2018-01-30T14:18:19.064Z,5.33
2018-01-30T14:20:46.890Z,21.05
2018-01-30T14:23:13.355Z,8.75
2018-01-30T14:25:39.864Z,7.93
2018-01-30T14:28:07.242Z,4.55
2018-01-30T14:30:34.491Z,4.95
2018-01-30T14:33:01.076Z,4.75
2018-01-30T14:35:27.637Z,4.10
2018-01-30T14:37:54.540Z,3.42
2018-01-30T14:40:21.215Z,3.20
2018-01-30T14:42:47.698Z,2.50
2018-01-30T14:45:14.276Z,2.55
2018-01-30T14:47:41.561Z,2.33
2018-01-30T14:50:08.212Z,2.20
2018-01-30T14:52:35.486Z,2.45
2018-01-30T14:55:02.863Z,2.20
2018-01-30T14:57:30.853Z,1.90
2018-01-30T14:59:58.169Z,2.60
2018-01-30T15:02:24.687Z,2.50
2018-01-30T15:04:51.960Z,12.23
2018-01-30T15:07:19.234Z,13.05
2018-01-30T15:09:46.444Z,20.52
2018-01-30T15:12:13.504Z,7.67
2018-01-30T15:14:39.930Z,5.20
2018-01-30T15:17:07.207Z,2.70
2018-01-30T15:19:34.481Z,3.20
2018-01-30T15:22:01.862Z,3.50
2018-01-30T15:24:28.993Z,2.80
2018-01-30T15:26:57.003Z,2.42
2018-01-30T15:29:24.295Z,2.53
2018-01-30T15:31:51.512Z,3.10
2018-01-30T15:34:18.128Z,2.87
2018-01-30T15:36:45.402Z,7.95
2018-01-30T15:39:12.679Z,3.78
2018-01-30T15:41:39.165Z,4.20
2018-01-30T15:44:05.693Z,3.25
2018-01-30T15:46:32.967Z,2.50
2018-01-30T15:49:00.290Z,4.57
2018-01-30T15:51:26.826Z,4.20
2018-01-30T15:53:53.460Z,2.95
2018-01-30T15:56:21.136Z,2.40
2018-01-30T15:58:48.334Z,2.90
2018-01-30T16:01:14.876Z,7.43
2018-01-30T16:03:42.606Z,16.87
2018-01-30T16:06:09.121Z,53.67
2018-01-30T16:08:35.679Z,24.30
2018-01-30T16:11:02.336Z,14.25
2018-01-30T16:13:29.610Z,6.40
2018-01-30T16:15:56.810Z,5.47
2018-01-30T16:18:23.254Z,5.28
2018-01-30T16:20:49.796Z,5.18
2018-01-30T16:23:17.175Z,8.18
2018-01-30T16:25:44.411Z,6.97
2018-01-30T16:28:11.009Z,13.07
2018-01-30T16:42:43.915Z,7.10
2018-01-30T16:45:11.189Z,8.00
2018-01-30T16:47:38.377Z,15.60
2018-01-30T16:50:04.972Z,7.05
2018-01-30T16:52:31.581Z,6.30
2018-01-30T16:54:58.868Z,5.32
2018-01-30T16:57:25.477Z,5.93
2018-01-30T16:59:52.676Z,5.25
2018-01-30T17:02:19.164Z,5.70
2018-01-30T17:04:45.706Z,5.85
2018-01-30T17:07:12.953Z,6.00
2018-01-30T17:09:39.542Z,7.43
2018-01-30T17:12:05.997Z,5.03
2018-01-30T17:14:32.469Z,5.15
2018-01-30T17:16:58.971Z,4.50
2018-01-30T17:19:25.480Z,7.28
2018-01-30T17:21:51.976Z,7.70
2018-01-30T17:24:18.499Z,10.32
2018-01-30T17:26:45.038Z,11.50
2018-01-30T17:29:12.318Z,20.12
2018-01-30T17:31:38.789Z,25.17
2018-01-30T17:34:05.363Z,25.77
2018-01-30T17:36:31.841Z,29.63
2018-01-30T17:38:58.342Z,22.30
2018-01-30T17:41:25.616Z,25.60
2018-01-30T17:43:52.890Z,22.92
2018-01-30T17:46:20.118Z,19.37
2018-01-30T17:48:46.622Z,16.90
2018-01-30T17:51:13.895Z,20.35
2018-01-30T17:53:40.371Z,18.60
2018-01-30T17:56:06.910Z,16.30
2018-01-30T17:58:34.183Z,18.20
2018-01-30T18:01:01.562Z,18.95
2018-01-30T18:03:28.834Z,23.98
2018-01-30T18:05:56.110Z,15.05
2018-01-30T18:08:23.324Z,12.18
2018-01-30T18:10:49.842Z,13.18
2018-01-30T18:13:17.067Z,12.60
2018-01-30T18:17:05.293Z,12.90
2018-01-30T18:19:32.767Z,14.80
2018-01-30T18:22:00.208Z,14.70
2018-01-30T18:24:26.806Z,16.70
2018-01-30T18:26:54.080Z,15.70
2018-01-30T18:29:21.808Z,17.40
2018-01-30T18:31:48.422Z,22.08
2018-01-30T18:34:15.631Z,20.90
2018-01-30T18:36:42.127Z,19.70
2018-01-30T18:39:08.713Z,17.98
2018-01-30T18:41:35.271Z,20.83
2018-01-30T18:44:02.546Z,29.10
2018-01-30T18:46:29.824Z,32.78
2018-01-30T18:48:57.033Z,31.80
2018-01-30T18:51:23.552Z,39.53
2018-01-30T18:53:50.212Z,39.90
2018-01-30T18:56:17.401Z,36.17
2018-01-30T18:58:44.357Z,34.50
2018-01-30T19:01:11.013Z,29.25
2018-01-30T19:03:38.396Z,27.90
2018-01-30T19:06:04.948Z,25.60
2018-01-30T19:08:32.221Z,22.75
2018-01-30T19:10:59.522Z,20.42
2018-01-30T19:13:26.056Z,17.12
2018-01-30T19:15:53.099Z,15.27
2018-01-30T19:18:20.399Z,13.60
2018-01-30T19:20:48.127Z,13.10
2018-01-30T19:23:14.743Z,11.68
2018-01-30T19:25:42.017Z,12.00
2018-01-30T19:28:09.345Z,12.43
2018-01-30T19:30:39.433Z,12.85
2018-01-30T19:33:06.584Z,14.25
2018-01-30T19:35:33.266Z,13.73
2018-01-30T19:37:59.850Z,10.90
2018-01-30T19:40:26.381Z,11.00
2018-01-30T19:42:54.237Z,12.07
2018-01-30T19:45:20.827Z,14.00
2018-01-30T19:47:48.101Z,13.80
2018-01-30T19:50:15.377Z,11.23
2018-01-30T19:52:43.272Z,13.05
2018-01-30T19:55:09.823Z,13.35
2018-01-30T19:57:37.099Z,13.00
2018-01-30T20:00:04.893Z,11.45
2018-01-30T20:02:31.592Z,11.60
2018-01-30T20:04:58.102Z,13.00
2018-01-30T20:07:25.479Z,15.70
2018-01-30T20:09:52.753Z,15.02
2018-01-30T20:12:19.991Z,11.80
2018-01-30T20:14:46.471Z,11.70
2018-01-30T20:17:19.692Z,10.95
2018-01-30T20:19:46.966Z,11.10
2018-01-30T20:22:13.437Z,10.20
2018-01-30T20:24:39.952Z,10.60
2018-01-30T20:27:06.449Z,10.60
2018-01-30T20:29:32.995Z,11.90
2018-01-30T20:32:00.294Z,12.37
2018-01-30T20:34:26.746Z,11.50
2018-01-30T20:36:53.262Z,10.52
2018-01-30T20:39:19.841Z,9.53
2018-01-30T20:41:47.220Z,11.32
2018-01-30T20:44:14.459Z,11.50
2018-01-30T20:46:41.061Z,10.52
2018-01-30T20:49:08.535Z,10.50
2018-01-30T20:51:35.805Z,11.30
2018-01-30T20:54:03.023Z,21.70
2018-01-30T20:56:29.599Z,27.40
2018-01-30T20:58:56.098Z,27.33
2018-01-30T21:01:22.965Z,26.70
2018-01-30T21:03:49.418Z,20.67
2018-01-30T21:06:16.606Z,18.20
2018-01-30T21:08:43.146Z,13.62
2018-01-30T21:11:10.423Z,13.43
2018-01-30T21:13:37.900Z,13.27
2018-01-30T21:16:05.277Z,13.62
2018-01-30T21:18:31.856Z,14.25
2018-01-30T21:20:58.444Z,14.23
2018-01-30T21:23:24.957Z,15.77
2018-01-30T21:25:51.514Z,14.70
2018-01-30T21:28:18.789Z,14.73
2018-01-30T21:30:45.249Z,13.93
2018-01-30T21:33:11.903Z,12.90
2018-01-30T21:35:39.178Z,14.50
2018-01-30T21:38:06.453Z,13.73
2018-01-30T21:40:35.839Z,12.88
2018-01-30T21:43:02.268Z,11.48
2018-01-30T21:45:28.890Z,11.10
2018-01-30T21:47:56.165Z,12.27
2018-01-30T21:50:23.441Z,9.60
2018-01-30T21:52:49.933Z,10.73
2018-01-30T21:55:16.527Z,10.15
2018-01-30T21:57:42.995Z,9.68
2018-01-30T22:00:10.291Z,9.70
2018-01-30T22:02:36.960Z,9.70
2018-01-30T22:05:03.504Z,8.88
2018-01-30T22:07:30.782Z,9.43
2018-01-30T22:09:57.338Z,13.10
2018-01-30T22:12:24.539Z,7.90
2018-01-30T22:14:51.070Z,8.57
2018-01-30T22:17:17.654Z,9.98
2018-01-30T22:19:44.188Z,9.20
2018-01-30T22:22:11.464Z,9.73
2018-01-30T22:24:38.781Z,9.40
2018-01-30T22:27:05.294Z,12.20
2018-01-30T22:29:32.568Z,15.30
2018-01-30T22:31:59.842Z,22.73
2018-01-30T22:34:27.117Z,10.70
2018-01-30T22:36:54.795Z,7.65
2018-01-30T22:39:22.243Z,8.50
2018-01-30T22:41:48.837Z,7.72
2018-01-30T22:44:15.996Z,8.82
2018-01-30T22:46:43.196Z,8.80
